createdAt,value
2018-04-08T00:02:22.544Z,28.98
2018-04-08T00:04:51.994Z,23.70
2018-04-08T00:07:21.244Z,22.02
2018-04-08T00:09:50.802Z,25.02
2018-04-08T00:12:20.557Z,20.30
2018-04-08T00:14:50.221Z,23.83
2018-04-08T00:17:19.767Z,25.62
2018-04-08T00:19:49.437Z,18.10
2018-04-08T00:22:18.693Z,26.58
2018-04-08T00:24:48.240Z,23.40
2018-04-08T00:27:17.472Z,22.55
2018-04-08T00:29:47.328Z,41.30
2018-04-08T00:32:16.567Z,25.48
2018-04-08T00:34:46.881Z,25.33
2018-04-08T00:37:16.120Z,25.02
2018-04-08T00:39:45.482Z,20.75
2018-04-08T00:42:15.022Z,26.95
2018-04-08T00:44:44.497Z,28.35
2018-04-08T00:47:13.733Z,25.27
2018-04-08T00:49:43.209Z,25.45
2018-04-08T00:52:12.699Z,23.48
2018-04-08T00:54:42.221Z,32.58
2018-04-08T00:57:11.654Z,22.40
2018-04-08T00:59:41.066Z,20.80
2018-04-08T01:02:11.029Z,25.67
2018-04-08T01:04:40.287Z,24.55
2018-04-08T01:07:10.570Z,22.95
2018-04-08T01:09:40.924Z,23.98
2018-04-08T01:12:10.405Z,21.98
2018-04-08T01:14:40.297Z,29.30
2018-04-08T01:17:09.834Z,28.35
2018-04-08T01:19:39.842Z,27.75
2018-04-08T01:22:09.189Z,21.37
2018-04-08T01:24:38.548Z,28.10
2018-04-08T01:27:08.663Z,20.60
2018-04-08T01:29:37.909Z,26.15
2018-04-08T01:32:07.267Z,20.92
2018-04-08T01:34:36.986Z,23.90
2018-04-08T01:37:07.105Z,28.15
2018-04-08T01:39:37.320Z,23.90
2018-04-08T01:42:06.720Z,28.33
2018-04-08T01:44:35.964Z,23.77
2018-04-08T01:47:06.138Z,26.62
2018-04-08T01:49:35.784Z,22.98
2018-04-08T02:03:58.789Z,30.02
2018-04-08T02:06:28.024Z,32.20
2018-04-08T02:08:57.388Z,23.98
2018-04-08T02:11:26.687Z,25.67
2018-04-08T02:13:56.003Z,29.75
2018-04-08T02:16:26.023Z,24.67
2018-04-08T02:18:55.437Z,26.33
2018-04-08T02:21:25.440Z,36.28
2018-04-08T02:23:54.827Z,23.48
2018-04-08T02:26:24.077Z,24.45
2018-04-08T02:28:53.639Z,28.83
2018-04-08T02:31:22.889Z,30.80
2018-04-08T02:33:52.444Z,31.40
2018-04-08T02:36:21.682Z,30.65
2018-04-08T02:38:51.113Z,24.00
2018-04-08T02:41:20.317Z,25.85
2018-04-08T02:43:49.774Z,30.75
2018-04-08T02:46:19.105Z,23.90
2018-04-08T02:48:48.508Z,23.27
2018-04-08T02:51:18.246Z,28.80
2018-04-08T02:53:47.675Z,29.35
2018-04-08T02:56:16.903Z,29.15
2018-04-08T02:58:46.285Z,24.15
2018-04-08T03:01:16.292Z,25.85
2018-04-08T03:03:45.692Z,24.48
2018-04-08T03:06:14.930Z,25.55
2018-04-08T03:08:44.305Z,26.95
2018-04-08T03:11:14.312Z,32.38
2018-04-08T03:13:43.716Z,29.25
2018-04-08T03:16:12.986Z,33.33
2018-04-08T03:18:43.760Z,26.12
2018-04-08T03:21:14.281Z,31.05
2018-04-08T03:23:43.525Z,30.27
2018-04-08T03:26:13.092Z,26.45
2018-04-08T03:28:42.537Z,26.98
2018-04-08T03:31:11.895Z,27.50
2018-04-08T03:33:41.128Z,31.95
2018-04-08T03:36:10.500Z,29.12
2018-04-08T03:38:39.859Z,27.92
2018-04-08T03:41:09.917Z,24.98
2018-04-08T03:43:39.170Z,27.77
2018-04-08T03:46:08.620Z,31.42
2018-04-08T03:48:39.367Z,31.83
2018-04-08T03:51:08.768Z,26.95
2018-04-08T03:53:38.006Z,34.05
2018-04-08T03:56:08.187Z,30.20
2018-04-08T03:58:37.548Z,29.58
2018-04-08T04:01:06.992Z,26.95
2018-04-08T04:03:36.223Z,29.37
2018-04-08T04:06:06.000Z,26.35
2018-04-08T04:08:35.245Z,31.15
2018-04-08T04:11:04.607Z,30.25
2018-04-08T04:13:33.864Z,28.55
2018-04-08T04:16:03.437Z,34.55
2018-04-08T04:18:50.992Z,30.23
2018-04-08T04:21:38.060Z,29.17
2018-04-08T04:24:24.940Z,30.52
2018-04-08T04:26:54.386Z,32.60
2018-04-08T04:29:23.634Z,31.10
2018-04-08T04:31:53.080Z,31.55
2018-04-08T04:34:22.335Z,31.67
2018-04-08T04:36:51.700Z,29.02
2018-04-08T04:39:21.075Z,28.80
2018-04-08T04:41:50.493Z,27.87
2018-04-08T04:44:19.729Z,39.15
2018-04-08T04:46:49.872Z,32.15
2018-04-08T04:49:19.109Z,36.70
2018-04-08T04:51:49.333Z,28.98
2018-04-08T04:54:18.809Z,29.02
2018-04-08T04:56:48.052Z,25.20
2018-04-08T04:59:17.820Z,27.02
2018-04-08T05:01:47.100Z,29.92
2018-04-08T05:04:16.860Z,27.92
2018-04-08T05:06:46.896Z,30.88
2018-04-08T05:09:16.277Z,33.78
2018-04-08T05:11:46.176Z,28.12
2018-04-08T05:14:15.725Z,31.80
2018-04-08T05:16:45.716Z,27.52
2018-04-08T05:19:15.121Z,30.58
2018-04-08T05:21:44.479Z,28.12
2018-04-08T05:24:13.943Z,35.15
2018-04-08T05:26:43.171Z,31.80
2018-04-08T05:29:12.533Z,34.28
2018-04-08T05:31:42.699Z,31.60
2018-04-08T05:34:12.158Z,30.02
2018-04-08T05:36:41.391Z,29.30
2018-04-08T05:39:10.960Z,27.23
2018-04-08T05:41:40.708Z,29.15
2018-04-08T05:44:10.193Z,27.90
2018-04-08T05:46:39.427Z,29.83
2018-04-08T05:49:08.784Z,31.62
2018-04-08T05:51:39.126Z,28.90
2018-04-08T05:54:09.428Z,25.90
2018-04-08T05:56:38.812Z,23.83
2018-04-08T05:59:08.242Z,26.40
2018-04-08T06:01:37.476Z,26.25
2018-04-08T06:04:07.048Z,27.55
2018-04-08T06:06:36.906Z,23.60
2018-04-08T06:09:06.380Z,31.12
2018-04-08T06:11:36.487Z,26.02
2018-04-08T06:14:06.492Z,27.25
2018-04-08T06:16:35.905Z,26.80
2018-04-08T06:19:05.920Z,31.00
2018-04-08T06:21:35.323Z,28.43
2018-04-08T06:24:05.254Z,31.93
2018-04-08T06:26:35.408Z,28.77
2018-04-08T06:29:04.658Z,30.83
2018-04-08T06:31:34.084Z,25.30
2018-04-08T06:34:04.069Z,29.90
2018-04-08T06:36:33.424Z,30.27
2018-04-08T06:39:02.727Z,28.73
2018-04-08T06:41:32.204Z,32.57
2018-04-08T06:44:02.213Z,26.57
2018-04-08T06:46:31.612Z,30.53
2018-04-08T06:49:01.654Z,28.80
2018-04-08T06:51:31.041Z,30.67
2018-04-08T06:54:01.069Z,22.27
2018-04-08T06:56:30.657Z,27.00
2018-04-08T06:58:59.999Z,23.80
2018-04-08T07:01:29.397Z,28.30
2018-04-08T07:03:58.645Z,28.43
2018-04-08T07:06:28.077Z,26.20
2018-04-08T07:08:57.506Z,25.30
2018-04-08T07:11:26.904Z,24.50
2018-04-08T07:13:56.216Z,32.53
2018-04-08T07:16:26.309Z,32.20
2018-04-08T07:18:55.574Z,26.60
2018-04-08T07:21:25.112Z,27.13
2018-04-08T07:23:54.350Z,30.93
2018-04-08T07:26:24.730Z,24.70
2018-04-08T07:28:54.253Z,25.00
2018-04-08T07:31:24.253Z,25.70
2018-04-08T07:33:55.312Z,25.70
2018-04-08T07:36:24.628Z,24.50
2018-04-08T07:38:54.101Z,27.10
2018-04-08T07:41:23.665Z,27.20
2018-04-08T07:43:53.207Z,24.17
2018-04-08T07:46:22.467Z,23.70
2018-04-08T07:48:52.012Z,35.03
2018-04-08T07:51:21.268Z,29.70
2018-04-08T07:53:50.624Z,28.07
2018-04-08T07:56:19.864Z,27.33
2018-04-08T07:58:49.427Z,27.80
2018-04-08T08:01:19.445Z,43.03
2018-04-08T08:03:48.839Z,27.62
2018-04-08T08:06:18.418Z,26.05
2018-04-08T08:08:47.860Z,26.65
2018-04-08T08:11:17.104Z,27.08
2018-04-08T08:13:46.478Z,28.02
2018-04-08T08:16:16.484Z,27.67
2018-04-08T08:18:45.884Z,38.65
2018-04-08T08:21:15.134Z,26.98
2018-04-08T08:23:44.484Z,25.67
2018-04-08T08:26:13.712Z,34.85
2018-04-08T08:28:43.115Z,25.48
2018-04-08T08:31:12.865Z,25.75
2018-04-08T08:33:42.305Z,25.55
2018-04-08T08:36:11.567Z,23.15
2018-04-08T08:38:41.104Z,26.50
2018-04-08T08:41:10.357Z,28.45
2018-04-08T08:43:39.759Z,24.90
2018-04-08T08:46:08.964Z,27.58
2018-04-08T08:48:38.316Z,28.42
2018-04-08T08:51:08.228Z,28.77
2018-04-08T08:53:37.473Z,23.12
2018-04-08T08:56:07.450Z,24.42
2018-04-08T08:58:37.485Z,24.98
2018-04-08T09:01:06.860Z,24.33
2018-04-08T09:03:36.103Z,26.48
2018-04-08T09:06:05.489Z,26.17
2018-04-08T09:08:35.527Z,30.15
2018-04-08T09:11:04.895Z,27.87
2018-04-08T09:13:34.900Z,21.98
2018-04-08T09:16:04.308Z,22.75
2018-04-08T09:18:33.688Z,22.80
2018-04-08T09:24:06.344Z,32.03
2018-04-08T09:26:36.371Z,30.30
2018-04-08T09:29:05.641Z,28.02
2018-04-08T09:31:35.155Z,25.20
2018-04-08T09:34:05.169Z,29.02
2018-04-08T09:36:34.561Z,30.30
2018-04-08T09:39:04.780Z,31.75
2018-04-08T09:41:34.148Z,27.25
2018-04-08T09:44:03.392Z,28.15
2018-04-08T09:46:32.746Z,29.58
2018-04-08T09:49:02.164Z,26.10
2018-04-08T09:51:32.832Z,25.67
2018-04-08T09:54:02.840Z,29.45
2018-04-08T09:56:32.244Z,26.52
2018-04-08T09:59:02.264Z,23.83
2018-04-08T10:01:37.196Z,27.90
2018-04-08T10:04:07.538Z,26.10
2018-04-08T10:06:37.658Z,22.80
2018-04-08T10:09:08.499Z,22.65
2018-04-08T10:11:37.880Z,29.08
2018-04-08T10:14:07.891Z,24.75
2018-04-08T10:16:37.504Z,24.60
2018-04-08T10:19:07.537Z,23.02
2018-04-08T10:21:36.934Z,27.83
2018-04-08T10:24:06.949Z,24.27
2018-04-08T10:26:36.355Z,24.57
2018-04-08T10:29:06.441Z,26.10
2018-04-08T10:31:35.770Z,23.80
2018-04-08T10:34:05.789Z,26.10
2018-04-08T10:36:36.241Z,28.07
2018-04-08T10:39:05.616Z,30.93
2018-04-08T10:41:36.474Z,23.43
2018-04-08T10:44:06.796Z,22.37
2018-04-08T10:46:36.799Z,23.70
2018-04-08T10:49:06.173Z,24.37
2018-04-08T10:51:35.429Z,22.73
2018-04-08T10:54:05.722Z,26.80
2018-04-08T10:56:35.197Z,27.83
2018-04-08T10:59:04.552Z,32.30
2018-04-08T11:01:34.584Z,24.40
2018-04-08T11:04:04.578Z,28.20
2018-04-08T11:06:34.604Z,23.17
2018-04-08T11:09:03.998Z,22.13
2018-04-08T11:11:34.444Z,27.23
2018-04-08T11:14:04.240Z,22.77
2018-04-08T11:16:34.252Z,21.50
2018-04-08T11:19:03.880Z,29.03
2018-04-08T11:21:33.786Z,25.47
2018-04-08T11:24:03.272Z,23.53
2018-04-08T11:26:32.956Z,21.30
2018-04-08T11:29:02.488Z,24.17
2018-04-08T11:31:31.773Z,25.47
2018-04-08T11:34:02.286Z,25.37
2018-04-08T11:36:31.542Z,25.43
2018-04-08T11:39:01.124Z,27.97
2018-04-08T11:41:30.375Z,26.13
2018-04-08T11:44:00.344Z,22.03
2018-04-08T11:46:29.847Z,22.50
2018-04-08T11:48:59.204Z,20.07
2018-04-08T11:51:28.865Z,19.67
2018-04-08T11:53:58.556Z,20.60
2018-04-08T11:56:28.078Z,21.60
2018-04-08T11:58:57.775Z,21.43
2018-04-08T12:01:27.909Z,25.50
2018-04-08T12:03:57.155Z,22.10
2018-04-08T12:06:26.614Z,21.23
2018-04-08T12:08:57.245Z,24.10
2018-04-08T12:11:26.744Z,22.57
2018-04-08T12:13:55.992Z,24.80
2018-04-08T12:16:25.347Z,22.60
2018-04-08T12:18:54.588Z,21.70
2018-04-08T12:21:23.964Z,20.03
2018-04-08T12:23:53.973Z,22.77
2018-04-08T12:26:24.562Z,21.27
2018-04-08T12:28:55.200Z,24.90
2018-04-08T12:31:25.652Z,23.30
2018-04-08T12:33:54.889Z,24.57
2018-04-08T12:36:24.261Z,23.83
2018-04-08T12:38:54.156Z,23.03
2018-04-08T12:41:23.681Z,22.53
2018-04-08T12:43:53.227Z,21.30
2018-04-08T12:46:22.706Z,23.00
2018-04-08T12:48:51.936Z,22.83
2018-04-08T12:51:21.913Z,22.77
2018-04-08T12:53:51.235Z,31.13
2018-04-08T12:56:21.200Z,23.93
2018-04-08T12:58:50.451Z,20.17
2018-04-08T13:01:20.342Z,25.13
2018-04-08T13:03:49.590Z,24.83
2018-04-08T13:06:18.833Z,18.40
2018-04-08T13:08:48.249Z,22.60
2018-04-08T13:11:17.501Z,31.63
2018-04-08T13:13:47.047Z,22.57
2018-04-08T13:16:16.812Z,20.97
2018-04-08T13:18:47.012Z,22.10
2018-04-08T13:21:16.936Z,18.40
2018-04-08T13:23:46.310Z,17.53
2018-04-08T13:26:16.251Z,20.10
2018-04-08T13:28:45.725Z,48.13
2018-04-08T13:31:14.979Z,18.23
2018-04-08T13:33:44.531Z,17.00
2018-04-08T13:36:14.018Z,23.57
2018-04-08T13:38:43.552Z,15.33
2018-04-08T13:41:13.563Z,21.80
2018-04-08T13:43:43.786Z,19.33
2018-04-08T13:46:13.015Z,17.90
2018-04-08T13:48:42.592Z,19.70
2018-04-08T13:51:12.376Z,16.73
2018-04-08T13:53:41.812Z,18.23
2018-04-08T13:56:11.048Z,17.43
2018-04-08T13:58:40.816Z,15.40
2018-04-08T14:01:10.070Z,15.50
2018-04-08T14:03:39.405Z,14.50
2018-04-08T14:06:08.747Z,14.53
2018-04-08T14:08:39.865Z,18.20
2018-04-08T14:11:09.107Z,23.27
2018-04-08T14:13:38.356Z,17.07
2018-04-08T14:16:07.971Z,14.93
2018-04-08T14:18:37.424Z,14.07
2018-04-08T14:21:06.794Z,15.20
2018-04-08T14:23:36.924Z,15.30
2018-04-08T14:26:07.224Z,13.93
2018-04-08T14:28:37.189Z,14.97
2018-04-08T14:31:06.657Z,18.40
2018-04-08T14:33:36.676Z,13.70
2018-04-08T14:36:06.075Z,16.00
2018-04-08T14:38:36.083Z,16.13
2018-04-08T14:41:05.487Z,16.20
2018-04-08T14:43:35.060Z,14.70
2018-04-08T14:46:04.821Z,19.10
2018-04-08T14:48:34.051Z,21.23
2018-04-08T14:51:04.353Z,14.30
2018-04-08T14:53:34.366Z,13.53
2018-04-08T14:56:03.758Z,20.23
2018-04-08T14:58:33.036Z,16.80
2018-04-08T15:01:02.572Z,14.70
2018-04-08T15:03:31.986Z,28.20
2018-04-08T15:06:01.364Z,16.50
2018-04-08T15:08:30.603Z,19.00
2018-04-08T15:11:00.588Z,20.80
2018-04-08T15:13:29.856Z,23.30
2018-04-08T15:15:59.393Z,21.93
2018-04-08T15:18:28.653Z,21.07
2018-04-08T15:20:58.867Z,16.13
2018-04-08T15:23:28.134Z,19.37
2018-04-08T15:25:58.842Z,17.90
2018-04-08T15:28:28.358Z,16.50
2018-04-08T15:30:57.964Z,19.00
2018-04-08T15:33:27.368Z,17.13
2018-04-08T15:35:57.378Z,15.20
2018-04-08T15:38:26.783Z,18.63
2018-04-08T15:40:56.020Z,22.87
2018-04-08T15:43:25.411Z,15.13
2018-04-08T15:45:55.417Z,16.20
2018-04-08T15:48:24.831Z,18.17
2018-04-08T15:50:54.841Z,17.60
2018-04-08T15:53:24.874Z,15.17
2018-04-08T15:55:54.897Z,12.10
2018-04-08T15:58:24.266Z,23.47
2018-04-08T16:00:53.682Z,16.13
2018-04-08T16:03:23.890Z,16.20
2018-04-08T16:05:53.128Z,16.30
2018-04-08T16:08:22.717Z,13.97
2018-04-08T16:10:52.709Z,19.07
2018-04-08T16:13:22.116Z,16.93
2018-04-08T16:15:52.257Z,19.17
2018-04-08T16:18:22.383Z,15.60
2018-04-08T16:20:51.640Z,14.77
2018-04-08T16:23:20.887Z,19.13
2018-04-08T16:25:50.266Z,15.27
2018-04-08T16:28:19.563Z,13.50
2018-04-08T16:30:49.068Z,16.33
2018-04-08T16:33:19.002Z,12.03
2018-04-08T16:35:49.104Z,13.03
2018-04-08T16:38:18.768Z,11.80
2018-04-08T16:40:48.113Z,19.33
2018-04-08T16:43:17.852Z,14.30
2018-04-08T16:45:48.153Z,23.23
2018-04-08T16:48:17.388Z,16.90
2018-04-08T16:50:46.756Z,13.53
2018-04-08T16:53:16.325Z,15.87
2018-04-08T16:55:45.765Z,15.63
2018-04-08T16:58:15.629Z,17.40
2018-04-08T17:00:44.980Z,16.57
2018-04-08T17:03:14.209Z,13.53
2018-04-08T17:05:43.606Z,13.17
2018-04-08T17:08:14.920Z,13.97
2018-04-08T17:10:44.989Z,17.37
2018-04-08T17:13:14.225Z,15.77
2018-04-08T17:15:44.889Z,18.40
2018-04-08T17:18:14.896Z,13.57
2018-04-08T17:20:44.335Z,16.50
2018-04-08T17:23:14.452Z,14.13
2018-04-08T17:25:43.984Z,20.47
2018-04-08T17:28:14.443Z,15.83
2018-04-08T17:30:43.777Z,15.97
2018-04-08T17:33:14.096Z,16.60
2018-04-08T17:35:43.332Z,18.07
2018-04-08T17:38:12.712Z,17.13
2018-04-08T17:40:42.975Z,20.63
2018-04-08T17:43:13.133Z,15.23
2018-04-08T17:45:44.264Z,20.13
2018-04-08T17:48:13.785Z,15.00
2018-04-08T17:50:43.019Z,17.03
2018-04-08T17:53:12.380Z,12.50
2018-04-08T17:55:41.695Z,15.00
2018-04-08T17:58:11.192Z,16.33
2018-04-08T18:00:40.617Z,20.50
2018-04-08T18:03:10.439Z,24.27
2018-04-08T18:05:39.826Z,12.93
2018-04-08T18:08:09.215Z,17.53
2018-04-08T18:10:38.455Z,13.17
2018-04-08T18:13:08.020Z,14.80
2018-04-08T18:15:38.055Z,15.10
2018-04-08T18:18:07.440Z,16.93
2018-04-08T18:20:36.689Z,25.90
2018-04-08T18:23:06.974Z,15.60
2018-04-08T18:25:37.736Z,17.92
2018-04-08T18:28:07.825Z,17.90
2018-04-08T18:30:38.815Z,15.27
2018-04-08T18:33:08.270Z,22.87
2018-04-08T18:35:38.309Z,21.67
2018-04-08T18:38:07.610Z,20.65
2018-04-08T18:40:36.995Z,15.02
2018-04-08T18:43:07.771Z,17.50
2018-04-08T18:45:37.100Z,22.95
2018-04-08T18:48:06.340Z,16.20
2018-04-08T18:50:36.340Z,24.63
2018-04-08T18:53:06.352Z,20.02
2018-04-08T18:55:35.771Z,23.45
2018-04-08T18:58:05.886Z,23.15
2018-04-08T19:00:36.415Z,25.90
2018-04-08T19:03:05.655Z,19.08
2018-04-08T19:05:35.425Z,18.27
2018-04-08T19:08:04.668Z,27.67
2018-04-08T19:10:34.029Z,22.98
2018-04-08T19:13:04.235Z,19.37
2018-04-08T19:15:33.575Z,23.67
2018-04-08T19:18:03.252Z,23.52
2018-04-08T19:20:33.201Z,18.70
2018-04-08T19:23:02.672Z,28.08
2018-04-08T19:25:32.088Z,22.67
2018-04-08T19:28:02.413Z,23.08
2018-04-08T19:30:32.736Z,23.23
2018-04-08T19:33:01.985Z,32.03
2018-04-08T19:35:31.344Z,24.83
2018-04-08T19:38:00.580Z,26.33
2018-04-08T19:40:29.936Z,24.67
2018-04-08T19:42:59.209Z,23.60
2018-04-08T19:45:28.715Z,23.00
2018-04-08T19:47:58.772Z,21.55
2018-04-08T19:50:28.167Z,29.40
2018-04-08T19:52:57.673Z,25.62
2018-04-08T19:55:26.916Z,25.98
2018-04-08T19:57:56.295Z,27.67
2018-04-08T20:00:26.309Z,25.80
2018-04-08T20:02:55.636Z,22.87
2018-04-08T20:05:25.534Z,28.52
2018-04-08T20:07:55.528Z,23.05
2018-04-08T20:10:24.767Z,26.52
2018-04-08T20:12:54.144Z,30.30
2018-04-08T20:15:24.151Z,23.95
2018-04-08T20:17:53.548Z,22.60
2018-04-08T20:20:23.290Z,22.58
2018-04-08T20:22:53.474Z,24.65
2018-04-08T20:25:23.159Z,28.35
2018-04-08T20:27:53.464Z,24.10
2018-04-08T20:30:22.715Z,26.52
2018-04-08T20:32:52.881Z,24.65
2018-04-08T20:35:22.288Z,24.45
2018-04-08T20:37:51.644Z,23.87
2018-04-08T20:40:21.072Z,26.62
2018-04-08T20:42:50.652Z,23.70
2018-04-08T20:45:19.996Z,21.67
2018-04-08T20:47:49.459Z,24.67
2018-04-08T20:50:18.717Z,39.03
2018-04-08T20:52:48.270Z,25.25
2018-04-08T20:55:17.784Z,25.77
2018-04-08T20:57:48.311Z,24.40
2018-04-08T21:00:17.569Z,25.70
2018-04-08T21:02:46.833Z,30.23
2018-04-08T21:05:16.413Z,23.40
2018-04-08T21:07:46.549Z,23.05
2018-04-08T21:10:16.860Z,22.85
2018-04-08T21:12:46.882Z,22.62
2018-04-08T21:15:16.276Z,27.58
2018-04-08T21:17:45.523Z,28.50
2018-04-08T21:20:14.890Z,27.45
2018-04-08T21:22:44.124Z,25.62
2018-04-08T21:25:13.587Z,26.70
2018-04-08T21:27:43.468Z,23.77
2018-04-08T21:30:13.030Z,26.45
2018-04-08T21:32:42.667Z,32.67
2018-04-08T21:35:12.431Z,26.77
2018-04-08T21:37:41.667Z,24.58
2018-04-08T21:40:11.851Z,24.20
2018-04-08T21:42:41.864Z,24.98
2018-04-08T21:45:11.272Z,23.75
2018-04-08T21:47:41.315Z,30.40
2018-04-08T21:50:10.695Z,28.77
2018-04-08T21:52:39.933Z,21.70
2018-04-08T21:55:09.301Z,26.75
2018-04-08T21:57:39.691Z,22.73
2018-04-08T22:00:09.130Z,27.52
2018-04-08T22:02:38.370Z,26.85
2018-04-08T22:05:08.346Z,30.23
2018-04-08T22:07:37.628Z,35.17
2018-04-08T22:10:07.143Z,34.15
2018-04-08T22:12:36.432Z,33.20
2018-04-08T22:15:06.564Z,30.70
2018-04-08T22:17:36.093Z,25.95
2018-04-08T22:20:06.292Z,36.38
2018-04-08T22:22:35.694Z,36.28
2018-04-08T22:25:04.929Z,25.08
2018-04-08T22:27:34.288Z,35.50
2018-04-08T22:30:03.524Z,27.58
2018-04-08T22:32:33.107Z,39.08
2018-04-08T22:35:02.788Z,36.22
2018-04-08T22:37:32.323Z,26.85
2018-04-08T22:40:01.697Z,27.60
2018-04-08T22:42:31.133Z,22.83
2018-04-08T22:45:00.368Z,33.75
2018-04-08T22:47:29.736Z,26.70
2018-04-08T22:49:59.566Z,38.92
2018-04-08T22:52:28.953Z,27.00
2018-04-08T22:54:59.376Z,25.65
2018-04-08T22:57:29.412Z,32.25
2018-04-08T22:59:59.437Z,41.88
2018-04-08T23:02:28.812Z,44.30
2018-04-08T23:04:58.752Z,36.60
2018-04-08T23:07:28.876Z,26.67
2018-04-08T23:09:58.880Z,45.47
2018-04-08T23:12:28.277Z,31.00
2018-04-08T23:14:58.668Z,35.25
2018-04-08T23:17:28.105Z,33.92
2018-04-08T23:19:57.344Z,38.80
2018-04-08T23:22:26.909Z,30.95
2018-04-08T23:24:56.612Z,34.35
2018-04-08T23:27:26.125Z,37.40
2018-04-08T23:29:55.693Z,32.45
2018-04-08T23:32:25.471Z,34.78
2018-04-08T23:34:54.852Z,34.88
2018-04-08T23:37:24.088Z,38.65
2018-04-08T23:39:54.069Z,44.83
2018-04-08T23:42:23.673Z,36.88
2018-04-08T23:44:53.073Z,34.42
2018-04-08T23:47:23.616Z,31.75
2018-04-08T23:49:53.746Z,34.35
2018-04-08T23:52:23.747Z,28.70
2018-04-08T23:54:53.965Z,32.08
2018-04-08T23:57:23.512Z,32.08
2018-04-08T23:59:53.382Z,34.65
